Time;durP1;ratioP1;P1;durP2;ratioP2;P2;SDS_P1;SDS_P2;PMS_P1;PMS_P2;Temp;Humidity;BMP_temperature;BMP_pressure;BME280_temperature;BME280_humidity;BME280_pressure;Samples;Min_cycle;Max_cycle;Signal;HPM_P1;HPM_P2
2023/12/02 00:00:45;;;;;;;52.43;9.27;;;16.00;92.00;;;;;;5104231;28;20209;-63
2023/12/02 00:03:13;;;;;;;43.87;8.33;;;15.90;91.90;;;;;;5081566;28;20295;-63
2023/12/02 00:05:41;;;;;;;37.80;7.93;;;15.90;91.90;;;;;;5086609;28;20634;-63
2023/12/02 00:08:09;;;;;;;48.10;8.93;;;15.80;91.80;;;;;;5084647;28;20251;-63
2023/12/02 00:10:37;;;;;;;49.33;7.80;;;15.80;91.80;;;;;;5084659;28;20296;-63
2023/12/02 00:13:06;;;;;;;46.23;8.40;;;15.80;91.80;;;;;;5073523;28;20220;-64
2023/12/02 00:15:34;;;;;;;51.10;7.60;;;15.80;91.80;;;;;;5072269;28;20205;-63
2023/12/02 00:18:01;;;;;;;32.10;7.50;;;15.80;91.70;;;;;;5087206;28;20638;-63
2023/12/02 00:20:29;;;;;;;43.33;9.10;;;15.80;91.70;;;;;;5081548;28;20295;-63
2023/12/02 00:22:57;;;;;;;45.53;8.37;;;15.80;91.70;;;;;;5088688;28;20221;-63
2023/12/02 00:25:25;;;;;;;42.00;7.90;;;15.80;91.60;;;;;;5085860;28;20197;-63
2023/12/02 00:27:53;;;;;;;46.73;8.77;;;15.80;91.60;;;;;;5089559;28;20323;-63
2023/12/02 00:30:22;;;;;;;42.10;7.17;;;15.80;91.60;;;;;;5076322;28;20639;-63
2023/12/02 00:32:49;;;;;;;44.43;8.63;;;15.70;91.60;;;;;;5086878;28;20267;-63
2023/12/02 00:35:17;;;;;;;42.03;7.30;;;15.70;91.60;;;;;;5091935;28;20202;-63
2023/12/02 00:37:44;;;;;;;27.63;6.13;;;15.70;91.60;;;;;;5087092;28;20206;-63
2023/12/02 00:40:12;;;;;;;45.60;8.90;;;15.70;91.60;;;;;;5087990;28;20288;-63
2023/12/02 00:42:39;;;;;;;44.97;8.37;;;15.70;91.90;;;;;;5085342;28;20219;-62
2023/12/02 00:45:08;;;;;;;39.60;7.50;;;15.60;91.60;;;;;;5088867;28;20646;-62
2023/12/02 00:47:35;;;;;;;46.57;7.70;;;15.60;91.60;;;;;;5088075;28;20194;-62
2023/12/02 00:50:03;;;;;;;36.77;8.07;;;15.60;91.60;;;;;;5086212;28;20190;-62
2023/12/02 00:52:31;;;;;;;41.03;7.93;;;15.70;91.60;;;;;;5089999;28;20210;-62
2023/12/02 00:54:58;;;;;;;32.97;6.60;;;15.70;91.60;;;;;;5088499;28;20200;-62
2023/12/02 00:57:26;;;;;;;37.00;7.30;;;15.80;91.50;;;;;;5068059;28;20201;-61
2023/12/02 00:59:54;;;;;;;30.20;6.47;;;15.80;91.50;;;;;;5065542;28;20195;-62
2023/12/02 01:02:21;;;;;;;39.83;7.60;;;15.80;91.50;;;;;;5085445;28;20207;-62
2023/12/02 01:04:50;;;;;;;31.60;7.47;;;15.80;91.50;;;;;;5070085;28;20649;-62
2023/12/02 01:07:18;;;;;;;36.00;8.07;;;15.80;91.50;;;;;;5060142;28;20689;-62
2023/12/02 01:09:46;;;;;;;39.80;7.20;;;15.80;91.50;;;;;;5073340;28;20536;-62
2023/12/02 01:12:14;;;;;;;31.10;7.27;;;15.80;91.60;;;;;;5070546;28;20193;-62
2023/12/02 01:14:41;;;;;;;38.13;7.33;;;15.80;91.70;;;;;;5065497;28;20595;-62
2023/12/02 01:17:10;;;;;;;35.50;5.87;;;15.80;91.80;;;;;;5072689;28;20231;-62
2023/12/02 01:19:37;;;;;;;27.87;5.83;;;15.80;91.80;;;;;;5052560;28;20212;-62
2023/12/02 01:22:05;;;;;;;34.37;6.07;;;15.80;91.80;;;;;;5051129;28;20668;-62
2023/12/02 01:24:33;;;;;;;35.30;6.13;;;15.80;92.20;;;;;;5050807;28;20214;-62
2023/12/02 01:27:01;;;;;;;39.10;7.73;;;15.80;91.90;;;;;;5069114;28;20211;-62
2023/12/02 01:29:28;;;;;;;28.17;6.90;;;15.80;91.90;;;;;;5069547;28;20196;-62
2023/12/02 01:31:56;;;;;;;28.70;6.50;;;15.80;92.00;;;;;;5071593;28;20205;-62
2023/12/02 01:34:24;;;;;;;35.27;5.47;;;15.80;92.00;;;;;;5068796;28;20261;-62
2023/12/02 01:36:52;;;;;;;32.97;6.63;;;15.80;92.10;;;;;;5053735;28;20665;-62
2023/12/02 01:39:19;;;;;;;34.10;8.10;;;15.80;92.20;;;;;;5067348;28;20289;-62
2023/12/02 01:41:47;;;;;;;42.17;7.33;;;15.80;92.20;;;;;;5071680;28;20206;-62
2023/12/02 01:44:15;;;;;;;35.70;6.83;;;15.80;92.20;;;;;;5070992;28;20265;-62
2023/12/02 01:46:43;;;;;;;26.23;4.90;;;15.90;92.30;;;;;;5053910;28;20220;-61
2023/12/02 01:49:11;;;;;;;31.17;5.93;;;15.90;92.30;;;;;;5052774;28;20296;-62
2023/12/02 01:51:40;;;;;;;34.03;5.43;;;15.90;92.40;;;;;;5056909;28;20261;-62
2023/12/02 01:54:08;;;;;;;25.97;5.00;;;15.90;92.40;;;;;;5064327;28;20212;-62
2023/12/02 01:56:37;;;;;;;22.33;4.80;;;16.00;92.50;;;;;;5069342;28;20247;-62
2023/12/02 01:59:19;;;;;;;18.77;3.90;;;16.00;92.50;;;;;;5053645;28;20669;-62
2023/12/02 02:01:46;;;;;;;31.77;5.93;;;16.00;92.60;;;;;;5056315;28;20203;-62
2023/12/02 02:04:14;;;;;;;31.93;4.40;;;16.10;92.60;;;;;;5064911;28;20256;-62
2023/12/02 02:06:43;;;;;;;18.93;3.87;;;16.00;92.70;;;;;;5090548;28;21064;-62
2023/12/02 02:09:10;;;;;;;18.83;3.73;;;16.00;92.80;;;;;;5077615;28;20619;-62
2023/12/02 02:11:38;;;;;;;22.07;4.10;;;16.00;92.90;;;;;;5078345;28;20209;-63
2023/12/02 02:14:05;;;;;;;15.77;3.87;;;15.90;93.00;;;;;;5082352;28;20584;-62
2023/12/02 02:16:32;;;;;;;22.30;3.67;;;15.90;93.10;;;;;;5086017;28;20201;-62
2023/12/02 02:18:59;;;;;;;21.27;4.03;;;15.90;93.20;;;;;;5087676;28;20204;-62
2023/12/02 02:21:26;;;;;;;19.13;4.10;;;15.90;93.30;;;;;;5084234;28;20225;-62
2023/12/02 02:23:53;;;;;;;16.57;3.80;;;15.80;93.40;;;;;;5065024;28;20678;-62
2023/12/02 02:26:21;;;;;;;16.50;3.37;;;15.80;93.40;;;;;;5085292;28;20202;-62
2023/12/02 02:28:47;;;;;;;18.90;3.77;;;15.80;93.50;;;;;;5081174;28;20202;-63
2023/12/02 02:31:15;;;;;;;12.37;3.00;;;15.70;93.60;;;;;;5081651;28;20278;-63
2023/12/02 02:33:42;;;;;;;10.27;2.50;;;15.70;93.70;;;;;;5081590;28;20198;-63
2023/12/02 02:36:10;;;;;;;17.70;3.43;;;15.70;93.80;;;;;;5083083;28;20224;-63
2023/12/02 02:38:37;;;;;;;14.77;3.90;;;15.70;93.90;;;;;;5079296;28;20658;-63
2023/12/02 02:41:04;;;;;;;11.10;3.27;;;15.60;94.00;;;;;;5083576;28;20229;-62
2023/12/02 02:43:31;;;;;;;19.27;3.80;;;15.60;94.10;;;;;;5081126;28;20547;-62
2023/12/02 02:45:59;;;;;;;11.77;4.20;;;15.60;94.30;;;;;;5082308;28;20200;-62
2023/12/02 02:48:26;;;;;;;11.10;2.90;;;15.60;94.30;;;;;;5082326;28;20537;-62
2023/12/02 02:50:54;;;;;;;14.80;4.43;;;15.50;94.30;;;;;;5051307;28;20293;-63
2023/12/02 02:53:21;;;;;;;19.03;3.63;;;15.50;94.40;;;;;;5082673;28;20654;-62
2023/12/02 02:55:48;;;;;;;18.43;3.13;;;15.40;94.50;;;;;;5085642;28;20282;-63
2023/12/02 02:58:15;;;;;;;16.80;3.30;;;15.30;94.50;;;;;;5080362;28;20205;-63
2023/12/02 03:00:42;;;;;;;16.60;3.67;;;15.20;94.60;;;;;;5087359;28;20294;-62
2023/12/02 03:03:10;;;;;;;18.17;3.77;;;15.20;94.80;;;;;;5064504;28;20666;-63
2023/12/02 03:05:37;;;;;;;19.77;3.33;;;15.10;94.90;;;;;;5049888;28;20219;-63
2023/12/02 03:08:04;;;;;;;11.17;3.63;;;15.00;95.10;;;;;;5084869;28;20205;-63
2023/12/02 03:10:33;;;;;;;12.00;3.80;;;15.00;95.20;;;;;;5083918;28;20272;-62
2023/12/02 03:13:01;;;;;;;15.17;3.00;;;14.90;95.40;;;;;;5084061;28;20259;-63
2023/12/02 03:15:28;;;;;;;19.27;3.77;;;14.90;95.50;;;;;;5078336;28;20277;-63
2023/12/02 03:17:55;;;;;;;11.20;2.40;;;14.80;95.70;;;;;;5089199;28;20205;-63
2023/12/02 03:20:22;;;;;;;14.87;2.80;;;14.80;95.80;;;;;;5082217;28;20584;-63
2023/12/02 03:22:50;;;;;;;17.17;3.53;;;14.70;95.80;;;;;;5084114;28;20626;-63
2023/12/02 03:25:17;;;;;;;11.27;2.60;;;14.70;95.90;;;;;;5067568;28;20197;-63
2023/12/02 03:27:44;;;;;;;5.97;2.60;;;14.60;96.00;;;;;;5085558;28;20268;-63
2023/12/02 03:30:12;;;;;;;8.77;2.53;;;14.50;96.10;;;;;;5085871;28;20230;-63
2023/12/02 03:32:40;;;;;;;14.60;2.77;;;14.50;96.20;;;;;;5088276;28;20205;-63
2023/12/02 03:35:08;;;;;;;17.63;3.47;;;14.50;96.30;;;;;;5069110;28;20200;-62
2023/12/02 03:37:39;;;;;;;13.53;2.70;;;14.50;96.30;;;;;;5074360;28;20200;-62
2023/12/02 03:40:07;;;;;;;12.80;3.13;;;14.40;96.40;;;;;;5057072;28;20705;-62
2023/12/02 03:42:34;;;;;;;6.87;2.60;;;14.40;96.40;;;;;;5082466;28;20212;-63
2023/12/02 03:45:02;;;;;;;14.97;3.17;;;14.30;96.50;;;;;;5073714;28;20251;-63
2023/12/02 03:47:29;;;;;;;13.10;2.67;;;14.20;96.50;;;;;;5069447;28;20201;-62
2023/12/02 03:49:57;;;;;;;11.47;3.27;;;14.20;96.60;;;;;;5082100;28;20204;-63
2023/12/02 03:52:24;;;;;;;9.93;2.53;;;14.10;96.70;;;;;;5081503;28;20227;-63
2023/12/02 03:54:52;;;;;;;5.93;1.70;;;14.10;96.90;;;;;;5070520;28;20672;-62
2023/12/02 03:57:19;;;;;;;9.10;2.07;;;14.00;96.90;;;;;;5086863;28;20213;-62
2023/12/02 03:59:47;;;;;;;10.17;1.90;;;14.00;97.00;;;;;;5066204;28;20638;-62
2023/12/02 04:02:14;;;;;;;7.57;1.70;;;14.00;97.00;;;;;;5080934;28;20201;-62
2023/12/02 04:04:42;;;;;;;5.80;2.00;;;14.00;97.10;;;;;;5085784;28;20302;-62
2023/12/02 04:07:10;;;;;;;5.60;1.20;;;13.90;97.10;;;;;;5067134;28;20217;-63
2023/12/02 04:09:38;;;;;;;8.00;1.73;;;13.90;97.20;;;;;;5073767;28;20587;-62
2023/12/02 04:12:06;;;;;;;6.97;1.90;;;13.90;97.60;;;;;;5067845;28;20236;-63
2023/12/02 04:14:34;;;;;;;7.77;2.50;;;13.90;97.40;;;;;;5066698;28;20265;-62
2023/12/02 04:17:02;;;;;;;11.43;2.60;;;13.90;97.50;;;;;;5061363;28;20219;-63
2023/12/02 04:19:30;;;;;;;4.30;1.90;;;14.00;97.60;;;;;;5070100;28;20193;-63
2023/12/02 04:21:57;;;;;;;6.47;1.67;;;14.00;97.70;;;;;;5086779;28;20216;-63
2023/12/02 04:24:24;;;;;;;9.20;1.83;;;14.00;97.80;;;;;;5088634;28;20231;-62
2023/12/02 04:26:51;;;;;;;7.97;1.97;;;14.00;97.80;;;;;;5091415;28;20197;-62
2023/12/02 04:29:18;;;;;;;12.43;2.37;;;14.00;97.80;;;;;;5086548;28;20283;-62
2023/12/02 04:31:45;;;;;;;7.57;2.00;;;14.00;97.80;;;;;;5085495;28;20198;-62
2023/12/02 04:34:14;;;;;;;7.27;1.57;;;14.00;97.80;;;;;;5088566;28;20686;-62
2023/12/02 04:36:43;;;;;;;9.57;2.97;;;13.90;97.80;;;;;;5090558;28;20284;-63
2023/12/02 04:39:11;;;;;;;12.10;2.50;;;13.90;97.90;;;;;;5084416;28;20611;-62
2023/12/02 04:41:38;;;;;;;9.63;1.80;;;13.90;97.90;;;;;;5083255;28;20219;-62
2023/12/02 04:44:06;;;;;;;12.23;4.00;;;13.90;97.90;;;;;;5088244;28;20266;-62
2023/12/02 04:46:33;;;;;;;7.23;2.53;;;13.90;98.00;;;;;;5088056;28;20200;-62
2023/12/02 04:49:00;;;;;;;13.87;2.20;;;13.90;98.10;;;;;;5087863;28;20207;-62
2023/12/02 04:51:27;;;;;;;7.53;2.30;;;13.90;98.50;;;;;;5082797;28;20231;-62
2023/12/02 04:53:54;;;;;;;9.53;2.00;;;13.90;98.30;;;;;;5081869;28;20200;-63
2023/12/02 04:56:21;;;;;;;9.63;1.90;;;14.00;98.30;;;;;;5091941;28;20315;-62
2023/12/02 04:58:48;;;;;;;6.30;1.23;;;14.00;98.30;;;;;;5088113;28;20510;-62
2023/12/02 05:01:15;;;;;;;6.23;2.10;;;14.00;98.40;;;;;;5085877;28;20296;-62
2023/12/02 05:03:42;;;;;;;5.07;1.53;;;14.10;98.50;;;;;;5086519;28;20243;-62
2023/12/02 05:06:14;;;;;;;3.90;1.30;;;14.20;98.50;;;;;;5081875;28;20299;-63
2023/12/02 05:08:43;;;;;;;3.97;1.60;;;14.30;98.40;;;;;;5087102;28;20224;-62
2023/12/02 05:11:20;;;;;;;4.30;1.50;;;14.40;98.10;;;;;;5076930;28;20230;-63
2023/12/02 05:13:47;;;;;;;3.70;1.10;;;14.40;97.80;;;;;;5081851;28;20189;-62
2023/12/02 05:16:15;;;;;;;7.20;2.87;;;14.50;97.60;;;;;;5081975;28;20573;-63
2023/12/02 05:18:42;;;;;;;10.57;2.83;;;14.60;97.20;;;;;;5086621;28;20222;-63
2023/12/02 05:21:10;;;;;;;4.87;3.10;;;14.60;96.80;;;;;;5088270;28;20602;-63
2023/12/02 05:23:37;;;;;;;11.73;5.30;;;14.60;96.40;;;;;;5084683;28;20275;-62
2023/12/02 05:26:04;;;;;;;14.60;7.93;;;14.50;95.90;;;;;;5086067;28;20214;-63
2023/12/02 05:28:31;;;;;;;14.80;8.77;;;14.40;94.90;;;;;;5085251;28;20685;-63
2023/12/02 05:30:58;;;;;;;18.17;9.30;;;14.10;94.90;;;;;;5089367;28;20547;-62
2023/12/02 05:33:26;;;;;;;18.30;10.70;;;13.90;94.50;;;;;;5067550;28;20198;-63
2023/12/02 05:35:53;;;;;;;16.43;10.20;;;13.60;94.30;;;;;;5081568;28;20351;-63
2023/12/02 05:38:20;;;;;;;19.07;10.60;;;13.30;94.50;;;;;;5082679;28;20215;-62
2023/12/02 05:40:47;;;;;;;14.93;10.37;;;13.10;94.70;;;;;;5084323;28;20263;-62
2023/12/02 05:43:14;;;;;;;20.13;12.47;;;12.80;94.80;;;;;;5085011;28;20284;-63
2023/12/02 05:45:41;;;;;;;21.50;13.93;;;12.60;94.80;;;;;;5083745;28;20193;-63
2023/12/02 05:48:08;;;;;;;21.23;14.77;;;12.30;95.10;;;;;;5083758;28;20215;-63
2023/12/02 05:50:36;;;;;;;21.67;16.23;;;12.00;95.40;;;;;;5085255;28;20199;-63
2023/12/02 05:53:04;;;;;;;27.40;18.47;;;11.80;95.80;;;;;;5082104;28;20215;-63
2023/12/02 05:55:31;;;;;;;27.20;18.03;;;11.60;96.20;;;;;;5080596;28;20200;-63
2023/12/02 05:57:58;;;;;;;21.93;16.13;;;11.50;96.50;;;;;;5085635;28;20262;-63
2023/12/02 06:00:26;;;;;;;23.77;18.47;;;11.50;96.90;;;;;;5088823;28;20222;-63
2023/12/02 06:02:53;;;;;;;29.70;16.43;;;11.30;97.00;;;;;;5080393;28;20304;-63
2023/12/02 06:05:20;;;;;;;25.43;15.30;;;11.30;97.10;;;;;;5078711;28;20212;-63
2023/12/02 06:07:47;;;;;;;25.80;16.40;;;11.20;97.20;;;;;;5066256;28;20675;-64
2023/12/02 06:10:14;;;;;;;24.07;15.13;;;11.10;97.30;;;;;;5083957;28;20576;-62
2023/12/02 06:12:41;;;;;;;22.90;15.60;;;11.10;97.30;;;;;;5082518;28;20211;-63
2023/12/02 06:15:10;;;;;;;22.57;16.00;;;11.00;97.30;;;;;;5083792;28;20203;-62
2023/12/02 06:17:38;;;;;;;24.57;16.10;;;10.90;97.30;;;;;;5067012;28;20211;-62
2023/12/02 06:20:06;;;;;;;28.87;17.27;;;10.80;97.50;;;;;;5081459;28;20286;-61
2023/12/02 06:22:33;;;;;;;25.43;15.93;;;10.70;97.60;;;;;;5086593;28;20205;-61
2023/12/02 06:25:01;;;;;;;23.03;16.10;;;10.60;97.70;;;;;;5077237;28;20220;-62
2023/12/02 06:27:28;;;;;;;26.40;16.17;;;10.50;97.80;;;;;;5081434;28;20324;-62
2023/12/02 06:29:55;;;;;;;29.17;18.83;;;10.50;97.80;;;;;;5084896;28;20230;-62
2023/12/02 06:32:22;;;;;;;23.37;16.87;;;10.40;97.90;;;;;;5082138;28;20631;-61
2023/12/02 06:34:49;;;;;;;26.30;18.33;;;10.40;97.90;;;;;;5086479;28;20195;-63
2023/12/02 06:37:16;;;;;;;29.90;18.97;;;10.30;97.90;;;;;;5084709;28;20198;-64
2023/12/02 06:39:43;;;;;;;27.43;19.47;;;10.20;97.90;;;;;;5081237;28;20202;-61
2023/12/02 06:42:10;;;;;;;27.83;18.53;;;10.20;98.10;;;;;;5084202;28;20637;-62
2023/12/02 06:44:38;;;;;;;33.07;19.67;;;10.20;98.40;;;;;;5081695;28;20217;-62
2023/12/02 06:47:05;;;;;;;27.27;19.00;;;10.20;98.60;;;;;;5083138;28;20260;-62
2023/12/02 06:49:32;;;;;;;27.40;18.87;;;10.20;98.70;;;;;;5082764;28;20192;-61
2023/12/02 06:51:59;;;;;;;28.13;18.33;;;10.10;98.70;;;;;;5085922;28;20205;-62
2023/12/02 06:54:26;;;;;;;26.40;19.63;;;10.10;98.80;;;;;;5083379;28;20224;-61
2023/12/02 06:56:53;;;;;;;28.07;19.43;;;10.10;98.80;;;;;;5083320;28;20638;-62
2023/12/02 06:59:20;;;;;;;24.87;18.23;;;10.10;98.90;;;;;;5083132;28;20217;-63
2023/12/02 07:01:48;;;;;;;24.60;17.23;;;10.20;99.00;;;;;;5076808;28;20636;-64
2023/12/02 07:04:15;;;;;;;27.70;17.83;;;10.30;98.80;;;;;;5076449;28;20256;-61
2023/12/02 07:06:42;;;;;;;25.70;18.03;;;10.30;98.70;;;;;;5077689;28;20219;-62
2023/12/02 07:09:11;;;;;;;25.90;16.73;;;10.20;98.70;;;;;;5053765;28;20199;-62
2023/12/02 07:11:38;;;;;;;22.67;16.97;;;10.20;98.80;;;;;;5078602;28;20194;-62
2023/12/02 07:14:05;;;;;;;22.47;15.70;;;10.20;99.10;;;;;;5080465;28;20209;-62
2023/12/02 07:16:32;;;;;;;25.47;16.70;;;10.30;99.50;;;;;;5086144;28;20225;-63
2023/12/02 07:18:59;;;;;;;18.07;11.90;;;10.30;99.20;;;;;;5077640;28;20204;-63
2023/12/02 07:21:26;;;;;;;13.37;8.43;;;10.40;99.20;;;;;;5080262;28;20518;-62
2023/12/02 07:23:53;;;;;;;11.77;5.53;;;10.50;99.60;;;;;;5078651;28;20207;-61
2023/12/02 07:26:20;;;;;;;3.93;2.93;;;10.50;99.30;;;;;;5080651;28;20208;-61
2023/12/02 07:28:47;;;;;;;4.53;1.10;;;10.70;99.30;;;;;;5082538;28;20195;-63
2023/12/02 07:31:16;;;;;;;1.93;0.73;;;10.90;98.90;;;;;;5083952;28;20269;-62
2023/12/02 07:33:43;;;;;;;1.77;0.73;;;11.20;98.30;;;;;;5088630;28;20195;-61
2023/12/02 07:36:11;;;;;;;3.87;0.70;;;11.50;97.20;;;;;;5083711;28;20212;-61
2023/12/02 07:38:40;;;;;;;0.93;0.70;;;11.80;96.00;;;;;;5079202;28;20260;-61
2023/12/02 07:41:10;;;;;;;2.53;0.80;;;12.10;94.80;;;;;;5080786;28;20200;-61
2023/12/02 07:43:37;;;;;;;2.30;0.70;;;12.40;93.80;;;;;;5086206;28;20967;-62
2023/12/02 07:46:05;;;;;;;1.83;0.90;;;12.60;93.20;;;;;;5083379;28;20223;-63
2023/12/02 07:48:32;;;;;;;2.67;0.90;;;12.80;92.40;;;;;;5049606;28;20201;-61
2023/12/02 07:51:03;;;;;;;3.77;1.47;;;13.00;91.80;;;;;;5068860;28;20215;-62
2023/12/02 07:53:30;;;;;;;3.30;0.90;;;13.20;91.20;;;;;;5081322;28;20201;-61
2023/12/02 07:55:57;;;;;;;2.07;0.90;;;13.30;90.70;;;;;;5081853;28;20598;-62
2023/12/02 07:58:24;;;;;;;1.67;0.80;;;13.50;90.50;;;;;;5067520;28;20300;-62
2023/12/02 08:00:51;;;;;;;2.83;1.00;;;13.60;90.10;;;;;;5083744;28;20206;-61
2023/12/02 08:03:18;;;;;;;1.43;0.83;;;13.70;89.60;;;;;;5087834;28;20233;-61
2023/12/02 08:05:47;;;;;;;2.20;0.87;;;13.80;89.20;;;;;;5084502;28;20251;-62
2023/12/02 08:08:14;;;;;;;3.23;0.90;;;13.90;88.70;;;;;;5073054;28;20220;-62
2023/12/02 08:10:40;;;;;;;2.43;1.13;;;14.00;88.20;;;;;;5086301;28;20216;-61
2023/12/02 08:13:07;;;;;;;2.97;1.33;;;14.10;87.90;;;;;;5085435;28;20530;-62
2023/12/02 08:15:36;;;;;;;3.20;1.90;;;14.20;87.80;;;;;;5089390;28;20596;-62
2023/12/02 08:18:03;;;;;;;48.60;43.87;;;14.20;87.50;;;;;;5085107;28;20213;-62
2023/12/02 08:20:30;;;;;;;2.97;2.00;;;14.30;87.20;;;;;;5086585;28;20270;-62
2023/12/02 08:22:57;;;;;;;2.97;2.00;;;14.40;86.70;;;;;;5085699;28;20618;-61
2023/12/02 08:25:25;;;;;;;4.80;2.30;;;14.50;86.80;;;;;;5086305;28;20235;-61
2023/12/02 08:27:52;;;;;;;7.10;3.27;;;14.50;86.80;;;;;;5087477;28;20191;-61
2023/12/02 08:30:19;;;;;;;6.00;2.07;;;14.50;87.60;;;;;;5083101;28;20206;-62
2023/12/02 08:32:46;;;;;;;5.87;2.67;;;14.60;87.20;;;;;;5087732;28;20195;-61
2023/12/02 08:35:13;;;;;;;3.97;2.07;;;14.60;87.20;;;;;;5081852;28;20641;-61
2023/12/02 08:37:40;;;;;;;2.80;1.80;;;14.70;87.40;;;;;;5083284;28;20224;-62
2023/12/02 08:40:08;;;;;;;5.03;2.00;;;14.70;87.40;;;;;;5083812;28;20202;-61
2023/12/02 08:42:35;;;;;;;1.13;0.97;;;14.80;87.50;;;;;;5086481;28;20762;-61
2023/12/02 08:45:02;;;;;;;1.70;0.60;;;14.90;87.20;;;;;;5083915;28;20220;-61
2023/12/02 08:47:29;;;;;;;3.10;0.80;;;14.90;86.10;;;;;;5086409;28;20194;-62
2023/12/02 08:49:56;;;;;;;2.40;0.67;;;15.00;85.10;;;;;;5087204;28;20209;-62
2023/12/02 08:52:24;;;;;;;1.10;0.60;;;15.10;84.20;;;;;;5083623;28;20197;-62
2023/12/02 08:54:51;;;;;;;4.50;0.50;;;15.20;83.30;;;;;;5087471;28;20209;-62
2023/12/02 08:57:17;;;;;;;2.07;0.80;;;15.30;83.00;;;;;;5083030;28;20205;-61
2023/12/02 08:59:44;;;;;;;5.97;0.83;;;15.40;83.00;;;;;;5067557;28;20596;-61
2023/12/02 09:02:11;;;;;;;1.47;0.60;;;15.50;82.70;;;;;;5081304;28;20592;-61
2023/12/02 09:04:39;;;;;;;2.57;0.83;;;15.60;81.70;;;;;;5084790;28;20241;-62
2023/12/02 09:07:06;;;;;;;6.13;1.07;;;15.70;81.20;;;;;;5068114;28;20205;-61
2023/12/02 09:09:32;;;;;;;5.80;1.10;;;15.80;80.10;;;;;;5081867;28;20196;-61
2023/12/02 09:12:00;;;;;;;1.87;0.87;;;15.90;79.30;;;;;;5083533;28;20258;-61
2023/12/02 09:14:27;;;;;;;3.70;0.93;;;15.90;79.10;;;;;;5085799;28;20585;-61
2023/12/02 09:16:54;;;;;;;5.07;1.00;;;16.00;78.80;;;;;;5079945;28;20324;-61
2023/12/02 09:19:50;;;;;;;5.27;1.00;;;16.00;78.60;;;;;;5083817;28;20198;-61
2023/12/02 09:22:47;;;;;;;4.43;0.87;;;16.00;77.40;;;;;;5083091;28;20280;-61
2023/12/02 09:25:28;;;;;;;3.93;0.60;;;16.00;77.60;;;;;;5083473;28;20287;-61
2023/12/02 09:28:05;;;;;;;2.73;1.00;;;16.10;77.40;;;;;;5086171;28;20200;-62
2023/12/02 09:30:33;;;;;;;6.60;1.43;;;16.10;77.30;;;;;;5084930;28;20599;-61
2023/12/02 09:33:01;;;;;;;2.33;0.70;;;16.10;76.90;;;;;;5080397;28;20197;-61
2023/12/02 09:35:28;;;;;;;6.57;1.10;;;16.10;76.60;;;;;;5085569;28;20263;-61
2023/12/02 09:37:57;;;;;;;2.50;0.90;;;16.10;76.20;;;;;;5085295;28;20768;-61
2023/12/02 09:40:33;;;;;;;5.17;1.23;;;16.10;75.40;;;;;;5085553;28;20232;-61
2023/12/02 09:43:22;;;;;;;1.97;0.97;;;16.10;75.30;;;;;;5081995;28;20600;-61
2023/12/02 09:46:08;;;;;;;8.23;1.67;;;16.10;75.50;;;;;;5084043;28;20222;-62
2023/12/02 09:48:47;;;;;;;4.03;1.07;;;16.00;74.70;;;;;;5085012;28;20190;-61
2023/12/02 09:51:40;;;;;;;1.63;0.70;;;15.90;74.60;;;;;;5084845;28;20198;-61
2023/12/02 09:54:07;;;;;;;5.23;0.90;;;15.80;74.70;;;;;;5082243;28;20596;-61
2023/12/02 09:56:42;;;;;;;2.97;0.80;;;15.70;74.70;;;;;;5085986;28;20205;-61
2023/12/02 09:59:19;;;;;;;2.47;0.70;;;15.80;75.00;;;;;;5081217;28;20209;-61
2023/12/02 10:02:06;;;;;;;4.80;1.10;;;15.80;75.10;;;;;;5081905;28;20541;-61
2023/12/02 10:04:47;;;;;;;5.37;0.90;;;15.80;75.10;;;;;;5082828;28;20241;-61
2023/12/02 10:07:56;;;;;;;4.30;0.90;;;15.90;74.70;;;;;;5083584;28;20280;-61
2023/12/02 10:10:26;;;;;;;2.80;0.70;;;15.90;75.40;;;;;;5072242;28;20284;-61
2023/12/02 10:13:32;;;;;;;4.60;0.97;;;15.90;74.50;;;;;;5080680;28;20198;-61
2023/12/02 10:16:03;;;;;;;3.57;0.90;;;15.90;74.50;;;;;;5071778;28;20210;-62
2023/12/02 10:18:37;;;;;;;3.80;1.00;;;15.90;74.70;;;;;;5084507;28;20225;-61
2023/12/02 10:21:10;;;;;;;7.30;0.83;;;16.00;74.90;;;;;;5078694;28;20233;-62
2023/12/02 10:23:59;;;;;;;7.17;1.77;;;16.00;75.70;;;;;;5066078;28;20301;-61
2023/12/02 10:26:46;;;;;;;4.10;0.90;;;16.00;75.60;;;;;;5086468;28;20740;-61
2023/12/02 10:29:25;;;;;;;6.57;1.27;;;16.10;75.60;;;;;;5083938;28;20186;-61
2023/12/02 10:32:15;;;;;;;6.60;1.30;;;16.10;75.30;;;;;;5084689;28;20217;-61
2023/12/02 10:34:53;;;;;;;6.17;1.40;;;16.10;75.10;;;;;;5083720;28;20190;-62
2023/12/02 10:37:28;;;;;;;3.50;1.03;;;16.20;74.90;;;;;;5084525;28;20197;-61
2023/12/02 10:39:57;;;;;;;8.30;1.40;;;16.20;75.70;;;;;;5086607;28;20194;-61
2023/12/02 10:42:34;;;;;;;5.43;1.07;;;16.20;75.20;;;;;;5088048;28;20198;-61
2023/12/02 10:45:06;;;;;;;4.87;1.43;;;16.30;74.70;;;;;;5083730;28;20217;-61
2023/12/02 10:47:33;;;;;;;2.57;1.10;;;16.20;74.20;;;;;;5066342;28;20231;-62
2023/12/02 10:50:02;;;;;;;3.33;1.17;;;16.20;74.30;;;;;;5084526;28;20212;-61
2023/12/02 10:52:31;;;;;;;4.40;1.40;;;16.10;74.30;;;;;;5063716;28;20573;-61
2023/12/02 10:55:02;;;;;;;5.00;1.17;;;16.10;74.30;;;;;;5081720;28;20286;-61
2023/12/02 10:57:29;;;;;;;4.23;1.27;;;16.10;74.10;;;;;;5081930;28;20631;-61
2023/12/02 11:00:06;;;;;;;4.83;0.90;;;16.10;73.60;;;;;;5083566;28;20218;-61
2023/12/02 11:02:38;;;;;;;2.77;0.90;;;16.20;74.10;;;;;;5081395;28;20221;-61
2023/12/02 11:05:14;;;;;;;3.80;0.90;;;16.30;74.30;;;;;;5072065;28;20641;-61
2023/12/02 11:07:49;;;;;;;6.07;0.60;;;16.40;74.20;;;;;;5087593;28;20201;-61
2023/12/02 11:10:23;;;;;;;3.43;1.10;;;16.50;73.10;;;;;;5085404;28;20529;-61
2023/12/02 11:12:59;;;;;;;3.80;0.80;;;16.60;72.20;;;;;;5078935;28;20259;-61
2023/12/02 11:15:28;;;;;;;3.87;1.00;;;16.60;72.40;;;;;;5079233;28;20534;-61
2023/12/02 11:18:04;;;;;;;3.90;0.87;;;16.60;72.60;;;;;;5080331;28;20199;-61
2023/12/02 11:20:49;;;;;;;5.03;1.40;;;16.60;72.40;;;;;;5079997;28;20529;-61
2023/12/02 11:23:41;;;;;;;2.40;0.50;;;16.50;72.40;;;;;;5060555;28;20197;-61
2023/12/02 11:26:28;;;;;;;2.27;0.90;;;16.40;72.80;;;;;;5069622;28;20655;-61
2023/12/02 11:29:24;;;;;;;3.93;0.90;;;16.30;72.60;;;;;;5077329;28;20203;-61
2023/12/02 11:32:17;;;;;;;4.00;1.00;;;16.20;72.40;;;;;;5090134;28;20506;-61
2023/12/02 11:35:04;;;;;;;6.07;4.03;;;16.00;72.50;;;;;;5081985;28;20509;-62
2023/12/02 11:37:53;;;;;;;6.77;4.77;;;15.90;73.40;;;;;;5083713;28;20211;-61
2023/12/02 11:40:56;;;;;;;6.17;4.90;;;15.60;75.10;;;;;;5080484;28;20207;-61
2023/12/02 11:43:52;;;;;;;7.80;5.13;;;15.20;77.00;;;;;;5081295;28;20204;-61
2023/12/02 11:46:29;;;;;;;7.80;5.13;;;14.70;78.60;;;;;;5079825;28;20205;-61
2023/12/02 11:49:20;;;;;;;7.20;4.50;;;14.30;80.00;;;;;;5083997;28;20285;-62
2023/12/02 11:52:02;;;;;;;9.60;4.60;;;14.00;81.20;;;;;;5080814;28;20213;-61
2023/12/02 11:54:51;;;;;;;5.13;3.70;;;13.80;82.70;;;;;;5079713;28;20260;-62
2023/12/02 11:57:24;;;;;;;7.47;3.63;;;13.60;83.40;;;;;;5079253;28;20220;-62
2023/12/02 12:00:09;;;;;;;4.03;3.40;;;13.40;83.70;;;;;;5084670;28;20618;-61
2023/12/02 12:02:54;;;;;;;3.70;2.77;;;13.30;84.10;;;;;;5082017;28;20278;-62
2023/12/02 12:05:27;;;;;;;5.00;3.43;;;13.10;84.30;;;;;;5081251;28;20270;-61
2023/12/02 12:08:18;;;;;;;4.20;3.10;;;13.00;84.70;;;;;;5083018;28;20201;-62
2023/12/02 12:10:53;;;;;;;3.20;2.50;;;12.90;85.60;;;;;;5085959;28;20189;-61
2023/12/02 12:13:21;;;;;;;7.93;3.03;;;12.80;86.30;;;;;;5080699;28;20204;-63
2023/12/02 12:15:48;;;;;;;4.00;2.40;;;12.80;87.10;;;;;;5080722;28;20552;-62
2023/12/02 12:18:17;;;;;;;5.47;2.40;;;12.70;88.10;;;;;;5081692;28;20383;-62
2023/12/02 12:20:46;;;;;;;4.27;1.70;;;12.60;89.00;;;;;;5083941;28;20205;-63
2023/12/02 12:23:12;;;;;;;2.70;1.50;;;12.60;89.90;;;;;;5083533;28;20263;-62
2023/12/02 12:25:41;;;;;;;1.63;0.90;;;12.50;90.10;;;;;;5077672;28;20652;-62
2023/12/02 12:28:08;;;;;;;1.87;0.70;;;12.50;90.50;;;;;;5076629;28;20548;-62
2023/12/02 12:30:48;;;;;;;2.37;0.70;;;12.60;90.50;;;;;;5078574;28;20202;-62
2023/12/02 12:33:19;;;;;;;2.77;0.53;;;12.60;90.70;;;;;;5063367;28;20236;-62
2023/12/02 12:35:49;;;;;;;1.10;0.40;;;12.60;90.60;;;;;;5083229;28;20260;-62
2023/12/02 12:38:17;;;;;;;1.07;0.40;;;12.70;90.40;;;;;;5081624;28;20212;-62
2023/12/02 12:40:44;;;;;;;2.80;0.70;;;12.60;90.20;;;;;;5080508;28;20217;-62
2023/12/02 12:43:12;;;;;;;0.50;0.40;;;12.70;90.10;;;;;;5086049;28;20274;-62
2023/12/02 12:45:40;;;;;;;0.23;0.23;;;12.70;89.60;;;;;;5081644;28;20223;-62
2023/12/02 12:48:08;;;;;;;0.73;0.73;;;12.70;89.20;;;;;;5068309;28;20208;-62
2023/12/02 12:50:37;;;;;;;0.73;0.60;;;12.80;88.70;;;;;;5085645;28;20281;-62
2023/12/02 12:53:12;;;;;;;0.90;0.60;;;12.80;88.30;;;;;;5085320;28;20209;-62
2023/12/02 12:55:45;;;;;;;0.77;0.47;;;12.90;88.10;;;;;;5083928;28;20523;-62